Aviation Digital Data Service (ADDS)

Output produced by METARs form (0129 UTC 01 October 2016)
found at http://aviationweather.gov/adds/metars/
 
KAOO 302320Z 0100/0124 07008G15KT 5SM BR SCT005 OVC008 
     FM010400 08007KT 3SM -DZ BR OVC004 
     FM011700 09008KT 5SM BR BKN009 OVC015